createdAt,value
2022-11-05T00:00:44.252Z,0.45
2022-11-05T00:03:29.569Z,0.45
2022-11-05T00:06:14.441Z,0.50
2022-11-05T00:08:59.926Z,0.30
2022-11-05T00:11:46.616Z,0.60
2022-11-05T00:14:32.720Z,0.40
2022-11-05T00:16:59.174Z,0.50
2022-11-05T00:19:25.638Z,0.60
2022-11-05T00:22:10.570Z,0.65
2022-11-05T00:24:55.499Z,0.50
2022-11-05T00:27:21.968Z,0.40
2022-11-05T00:29:48.415Z,0.40
2022-11-05T00:32:14.849Z,0.32
2022-11-05T00:34:41.292Z,0.50
2022-11-05T00:37:07.747Z,0.32
2022-11-05T00:39:34.370Z,0.70
2022-11-05T00:42:19.445Z,0.43
2022-11-05T00:45:04.131Z,0.32
2022-11-05T00:47:51.038Z,0.40
2022-11-05T00:50:18.860Z,0.35
2022-11-05T00:52:55.562Z,0.30
2022-11-05T00:55:28.310Z,0.40
2022-11-05T00:57:56.214Z,0.50
2022-11-05T01:00:24.439Z,0.30
2022-11-05T01:02:51.123Z,0.60
2022-11-05T01:05:17.832Z,0.32
2022-11-05T01:07:44.370Z,0.38
2022-11-05T01:10:11.076Z,0.40
2022-11-05T01:12:37.595Z,0.40
2022-11-05T01:15:04.918Z,0.30
2022-11-05T01:19:57.728Z,0.43
2022-11-05T01:22:24.175Z,0.30
2022-11-05T01:24:50.621Z,0.40
2022-11-05T01:27:17.145Z,0.43
2022-11-05T01:29:43.662Z,0.40
2022-11-05T01:32:10.174Z,0.30
2022-11-05T01:34:36.641Z,0.30
2022-11-05T01:37:03.304Z,0.20
2022-11-05T01:39:29.742Z,0.38
2022-11-05T01:41:56.299Z,0.30
2022-11-05T01:44:47.993Z,0.30
2022-11-05T01:49:52.424Z,0.30
2022-11-05T01:52:19.989Z,0.30
2022-11-05T01:54:47.345Z,0.40
2022-11-05T01:57:14.880Z,0.40
2022-11-05T01:59:46.231Z,0.40
2022-11-05T02:02:12.909Z,0.40
2022-11-05T02:04:44.683Z,0.50
2022-11-05T02:07:11.811Z,0.40
2022-11-05T02:10:01.150Z,0.40
2022-11-05T02:12:29.218Z,0.40
2022-11-05T02:14:59.146Z,0.40
2022-11-05T02:17:51.309Z,0.60
2022-11-05T02:20:23.761Z,0.50
2022-11-05T02:23:32.094Z,0.47
2022-11-05T02:26:41.470Z,0.40
2022-11-05T02:29:19.597Z,0.38
2022-11-05T02:31:57.860Z,0.40
2022-11-05T02:34:49.250Z,0.40
2022-11-05T02:37:21.399Z,0.30
2022-11-05T02:40:24.953Z,0.50
2022-11-05T02:43:15.321Z,0.40
2022-11-05T02:46:08.174Z,0.40
2022-11-05T02:48:43.302Z,0.80
2022-11-05T02:51:41.553Z,0.55
2022-11-05T02:54:20.561Z,0.30
2022-11-05T02:56:50.044Z,0.30
2022-11-05T02:59:16.493Z,0.40
2022-11-05T03:01:45.542Z,0.20
2022-11-05T03:04:16.470Z,0.40
2022-11-05T03:06:48.858Z,0.40
2022-11-05T03:09:24.101Z,0.38
2022-11-05T03:11:53.524Z,0.40
2022-11-05T03:14:36.226Z,0.20
2022-11-05T03:17:08.082Z,0.30
2022-11-05T03:19:49.922Z,0.50
2022-11-05T03:22:25.402Z,0.32
2022-11-05T03:24:56.736Z,0.20
2022-11-05T03:27:27.777Z,0.30
2022-11-05T03:30:00.306Z,0.32
2022-11-05T03:32:29.635Z,0.22
2022-11-05T03:35:03.442Z,0.30
2022-11-05T03:37:36.025Z,0.20
2022-11-05T03:40:06.196Z,0.20
2022-11-05T03:42:36.963Z,0.50
2022-11-05T03:45:14.754Z,0.32
2022-11-05T03:47:45.593Z,0.40
2022-11-05T03:50:28.663Z,0.20
2022-11-05T03:53:05.379Z,0.25
2022-11-05T03:55:55.171Z,0.30
2022-11-05T03:58:23.517Z,0.30
2022-11-05T04:00:50.955Z,0.30
2022-11-05T04:05:44.054Z,0.20
2022-11-05T04:08:29.099Z,0.20
2022-11-05T04:11:13.929Z,0.15
2022-11-05T04:13:40.384Z,0.20
2022-11-05T04:16:25.735Z,0.40
2022-11-05T04:18:52.186Z,0.30
2022-11-05T04:21:36.928Z,0.22
2022-11-05T04:24:09.531Z,0.20
2022-11-05T04:26:44.031Z,0.17
2022-11-05T04:29:29.635Z,0.30
2022-11-05T04:31:56.288Z,0.22
2022-11-05T04:34:23.233Z,0.30
2022-11-05T04:36:51.691Z,0.30
2022-11-05T04:39:19.821Z,0.40
2022-11-05T04:41:48.169Z,0.20
2022-11-05T04:44:16.076Z,0.32
2022-11-05T04:46:42.579Z,0.40
2022-11-05T04:49:09.062Z,0.30
2022-11-05T04:51:35.560Z,0.20
2022-11-05T04:54:02.137Z,0.20
2022-11-05T04:56:28.594Z,0.22
2022-11-05T04:58:55.085Z,0.20
2022-11-05T05:01:23.622Z,0.20
2022-11-05T05:03:51.676Z,0.20
2022-11-05T05:06:18.962Z,0.25
2022-11-05T05:08:47.517Z,0.10
2022-11-05T05:11:17.944Z,0.20
2022-11-05T05:13:44.722Z,0.30
2022-11-05T05:16:29.273Z,0.40
2022-11-05T05:18:55.714Z,0.15
2022-11-05T05:21:42.270Z,0.30
2022-11-05T05:24:10.543Z,0.30
2022-11-05T05:26:38.777Z,0.30
2022-11-05T05:29:05.778Z,0.30
2022-11-05T05:31:32.337Z,0.30
2022-11-05T05:33:58.793Z,0.20
2022-11-05T05:36:25.497Z,0.30
2022-11-05T05:38:51.956Z,0.20
2022-11-05T05:41:19.170Z,0.20
2022-11-05T05:43:45.745Z,0.22
2022-11-05T05:46:14.481Z,0.20
2022-11-05T05:48:41.531Z,0.40
2022-11-05T05:51:10.894Z,0.20
2022-11-05T05:53:38.597Z,0.20
2022-11-05T05:56:05.961Z,0.30
2022-11-05T05:58:37.962Z,0.13
2022-11-05T06:01:15.590Z,0.25
2022-11-05T06:03:45.040Z,0.20
2022-11-05T06:06:15.804Z,0.22
2022-11-05T06:08:42.732Z,0.20
2022-11-05T06:11:09.325Z,0.32
2022-11-05T06:13:36.502Z,0.25
2022-11-05T06:16:05.185Z,0.30
2022-11-05T06:18:32.551Z,0.30
2022-11-05T06:21:03.898Z,0.30
2022-11-05T06:23:32.168Z,0.28
2022-11-05T06:26:08.056Z,0.25
2022-11-05T06:28:34.917Z,0.20
2022-11-05T06:31:01.852Z,0.30
2022-11-05T06:33:28.362Z,0.25
2022-11-05T06:35:57.847Z,0.20
2022-11-05T06:38:24.376Z,0.17
2022-11-05T06:40:50.819Z,0.22
2022-11-05T06:43:17.270Z,0.30
2022-11-05T06:45:43.730Z,0.30
2022-11-05T06:48:10.686Z,0.22
2022-11-05T06:50:37.159Z,0.22
2022-11-05T06:53:04.719Z,0.20
2022-11-05T06:55:31.842Z,0.20
2022-11-05T06:57:58.520Z,0.20
2022-11-05T07:00:24.994Z,0.25
2022-11-05T07:02:51.454Z,0.30
2022-11-05T07:05:18.200Z,0.30
2022-11-05T07:07:45.245Z,0.30
2022-11-05T07:10:17.335Z,0.40
2022-11-05T07:12:44.405Z,0.35
2022-11-05T07:15:12.428Z,0.20
2022-11-05T07:17:40.016Z,0.20
2022-11-05T07:20:07.819Z,0.25
2022-11-05T07:22:34.867Z,0.30
2022-11-05T07:25:01.415Z,0.30
2022-11-05T07:27:28.020Z,0.30
2022-11-05T07:29:54.499Z,0.20
2022-11-05T07:32:20.950Z,0.40
2022-11-05T07:34:47.444Z,0.20
2022-11-05T07:37:16.577Z,0.47
2022-11-05T07:39:43.159Z,0.55
2022-11-05T07:42:13.370Z,0.35
2022-11-05T07:44:39.882Z,0.47
2022-11-05T07:47:06.328Z,0.30
2022-11-05T07:49:32.839Z,0.30
2022-11-05T07:51:59.303Z,0.40
2022-11-05T07:54:26.773Z,0.30
2022-11-05T07:59:19.620Z,0.40
2022-11-05T08:01:46.272Z,0.30
2022-11-05T08:04:13.060Z,0.30
2022-11-05T08:06:39.509Z,0.60
2022-11-05T08:09:06.051Z,0.40
2022-11-05T08:11:32.543Z,0.50
2022-11-05T08:13:59.015Z,0.40
2022-11-05T08:16:25.470Z,0.30
2022-11-05T08:18:51.928Z,0.65
2022-11-05T08:21:18.378Z,0.32
2022-11-05T08:23:45.278Z,0.57
2022-11-05T08:26:11.763Z,0.30
2022-11-05T08:28:38.256Z,0.40
2022-11-05T08:31:04.834Z,0.38
2022-11-05T08:33:31.541Z,0.20
2022-11-05T08:36:02.850Z,0.35
2022-11-05T08:38:29.789Z,0.55
2022-11-05T08:40:58.323Z,0.20
2022-11-05T08:43:24.854Z,0.25
2022-11-05T08:45:51.370Z,0.32
2022-11-05T08:48:19.403Z,0.40
2022-11-05T08:50:47.825Z,0.30
2022-11-05T08:53:15.318Z,0.40
2022-11-05T08:55:43.874Z,0.40
2022-11-05T08:58:17.919Z,0.43
2022-11-05T09:00:47.372Z,0.52
2022-11-05T09:03:15.147Z,0.52
2022-11-05T09:05:43.020Z,0.40
2022-11-05T09:08:12.383Z,0.40
2022-11-05T09:10:40.256Z,0.43
2022-11-05T09:13:08.737Z,0.50
2022-11-05T09:15:37.238Z,0.57
2022-11-05T09:18:07.986Z,0.30
2022-11-05T09:20:36.456Z,0.30
2022-11-05T09:23:02.940Z,0.30
2022-11-05T09:25:29.462Z,0.40
2022-11-05T09:28:16.506Z,0.22
2022-11-05T09:30:48.894Z,0.43
2022-11-05T09:33:18.209Z,0.43
2022-11-05T09:35:44.767Z,0.35
2022-11-05T09:38:11.333Z,0.32
2022-11-05T09:41:01.109Z,0.28
2022-11-05T09:43:49.228Z,0.30
2022-11-05T09:46:28.191Z,0.32
2022-11-05T09:49:11.710Z,0.40
2022-11-05T09:51:40.631Z,0.40
2022-11-05T09:54:07.225Z,0.20
2022-11-05T09:56:37.197Z,0.30
2022-11-05T09:59:27.408Z,0.30
2022-11-05T10:02:16.805Z,0.38
2022-11-05T10:04:46.422Z,0.40
2022-11-05T10:07:21.468Z,0.70
2022-11-05T10:09:53.660Z,0.40
2022-11-05T10:12:26.195Z,0.45
2022-11-05T10:15:17.042Z,0.43
2022-11-05T10:18:13.036Z,0.28
2022-11-05T10:20:39.923Z,0.50
2022-11-05T10:23:20.598Z,0.40
2022-11-05T10:26:05.254Z,0.43
2022-11-05T10:28:33.831Z,0.47
2022-11-05T10:31:04.121Z,0.60
2022-11-05T10:33:30.523Z,0.60
2022-11-05T10:36:01.543Z,0.77
2022-11-05T10:38:28.076Z,0.88
2022-11-05T10:41:30.553Z,0.60
2022-11-05T10:44:21.316Z,0.98
2022-11-05T10:47:16.636Z,0.70
2022-11-05T10:49:43.035Z,0.70
2022-11-05T10:52:22.462Z,0.90
2022-11-05T10:54:50.923Z,0.90
2022-11-05T10:57:34.588Z,0.95
2022-11-05T11:00:21.842Z,0.73
2022-11-05T11:03:02.607Z,0.90
2022-11-05T11:05:30.876Z,0.82
2022-11-05T11:07:59.821Z,0.70
2022-11-05T11:10:27.121Z,0.70
2022-11-05T11:12:55.552Z,0.55
2022-11-05T11:15:29.486Z,0.95
2022-11-05T11:17:56.492Z,0.85
2022-11-05T11:20:27.713Z,0.95
2022-11-05T11:23:03.667Z,0.90
2022-11-05T11:25:37.830Z,1.10
2022-11-05T11:28:07.124Z,0.90
2022-11-05T11:30:35.096Z,1.20
2022-11-05T11:33:09.547Z,0.80
2022-11-05T11:35:38.506Z,0.88
2022-11-05T11:38:06.762Z,0.80
2022-11-05T11:40:36.624Z,0.93
2022-11-05T11:43:12.293Z,0.70
2022-11-05T11:45:46.863Z,0.95
2022-11-05T11:48:19.209Z,0.70
2022-11-05T11:50:47.667Z,1.17
2022-11-05T11:53:19.950Z,0.80
2022-11-05T11:55:55.639Z,0.80
2022-11-05T11:58:25.593Z,1.10
2022-11-05T12:01:21.011Z,1.02
2022-11-05T12:03:55.781Z,0.80
2022-11-05T12:06:32.638Z,0.88
2022-11-05T12:09:16.981Z,0.90
2022-11-05T12:11:56.495Z,0.82
2022-11-05T12:17:04.223Z,0.75
2022-11-05T12:19:45.801Z,1.20
2022-11-05T12:22:15.190Z,0.73
2022-11-05T12:25:19.227Z,0.93
2022-11-05T12:28:13.760Z,0.85
2022-11-05T12:31:12.835Z,0.77
2022-11-05T12:33:45.472Z,0.60
2022-11-05T12:37:00.233Z,0.68
2022-11-05T12:40:14.008Z,0.70
2022-11-05T12:42:46.557Z,0.75
2022-11-05T12:45:15.974Z,1.15
2022-11-05T12:47:48.302Z,0.85
2022-11-05T12:50:31.094Z,0.75
2022-11-05T12:53:15.816Z,0.65
2022-11-05T12:55:48.789Z,0.80
2022-11-05T12:58:25.277Z,0.75
2022-11-05T13:01:02.609Z,0.90
2022-11-05T13:03:40.915Z,0.68
2022-11-05T13:06:13.177Z,0.85
2022-11-05T13:08:48.579Z,1.15
2022-11-05T13:11:20.657Z,0.90
2022-11-05T13:14:14.891Z,0.60
2022-11-05T13:16:55.339Z,0.55
2022-11-05T13:19:31.595Z,0.70
2022-11-05T13:22:09.457Z,0.70
2022-11-05T13:24:58.375Z,0.80
2022-11-05T13:27:48.051Z,1.02
2022-11-05T13:30:26.532Z,0.63
2022-11-05T13:33:11.030Z,0.77
2022-11-05T13:35:45.642Z,0.80
2022-11-05T13:38:44.732Z,0.80
2022-11-05T13:41:48.695Z,0.80
2022-11-05T13:44:45.077Z,1.10
2022-11-05T13:47:17.502Z,0.73
2022-11-05T13:50:01.242Z,0.80
2022-11-05T13:53:05.472Z,0.95
2022-11-05T13:56:01.545Z,0.73
2022-11-05T13:58:38.157Z,0.80
2022-11-05T14:01:40.046Z,0.68
2022-11-05T14:04:07.720Z,0.60
2022-11-05T14:06:36.501Z,0.80
2022-11-05T14:09:11.898Z,0.90
2022-11-05T14:11:42.857Z,0.80
2022-11-05T14:14:18.582Z,0.70
2022-11-05T14:17:12.843Z,0.60
2022-11-05T14:19:51.460Z,0.60
2022-11-05T14:22:33.050Z,0.70
2022-11-05T14:25:01.197Z,0.57
2022-11-05T14:27:36.819Z,0.80
2022-11-05T14:30:41.120Z,0.60
2022-11-05T14:33:37.318Z,0.80
2022-11-05T14:36:21.746Z,0.80
2022-11-05T14:38:54.558Z,0.50
2022-11-05T14:41:21.918Z,0.63
2022-11-05T14:48:58.079Z,0.57
2022-11-05T14:51:38.239Z,0.70
2022-11-05T14:54:19.601Z,0.73
2022-11-05T14:56:51.816Z,0.60
2022-11-05T14:59:24.255Z,0.57
2022-11-05T15:01:54.079Z,0.60
2022-11-05T15:04:28.357Z,0.68
2022-11-05T15:07:03.849Z,0.80
2022-11-05T15:10:04.302Z,0.80
2022-11-05T15:12:53.855Z,0.90
2022-11-05T15:15:29.207Z,0.60
2022-11-05T15:18:00.659Z,0.47
2022-11-05T15:20:40.412Z,0.73
2022-11-05T15:23:12.737Z,0.80
2022-11-05T15:26:02.631Z,0.50
2022-11-05T15:28:43.258Z,0.82
2022-11-05T15:31:12.443Z,1.42
2022-11-05T15:33:43.510Z,1.80
2022-11-05T15:36:24.754Z,2.10
2022-11-05T15:39:15.238Z,1.40
2022-11-05T15:41:38.494Z,1.38
2022-11-05T15:44:04.948Z,1.80
2022-11-05T15:46:31.420Z,1.58
2022-11-05T15:49:04.558Z,1.48
2022-11-05T15:51:31.124Z,1.60
2022-11-05T15:54:29.547Z,1.80
2022-11-05T15:56:59.583Z,1.50
2022-11-05T15:59:28.815Z,1.70
2022-11-05T16:02:18.846Z,1.50
2022-11-05T16:04:48.113Z,1.52
2022-11-05T16:07:15.632Z,1.45
2022-11-05T16:09:49.974Z,1.58
2022-11-05T16:12:19.521Z,1.70
2022-11-05T16:15:00.970Z,1.48
2022-11-05T16:17:48.614Z,1.70
2022-11-05T16:20:18.189Z,1.60
2022-11-05T16:22:49.972Z,1.50
2022-11-05T16:25:31.744Z,1.67
2022-11-05T16:27:59.739Z,1.40
2022-11-05T16:30:26.846Z,1.50
2022-11-05T16:32:53.706Z,1.80
2022-11-05T16:35:25.052Z,1.77
2022-11-05T16:37:52.697Z,1.73
2022-11-05T16:40:25.971Z,1.48
2022-11-05T16:42:53.932Z,1.58
2022-11-05T16:45:24.708Z,1.70
2022-11-05T16:47:51.978Z,1.60
2022-11-05T16:50:31.886Z,1.38
2022-11-05T16:52:58.417Z,1.38
2022-11-05T16:55:24.880Z,1.60
2022-11-05T16:57:54.445Z,1.50
2022-11-05T17:00:22.256Z,1.88
2022-11-05T17:02:49.289Z,1.60
2022-11-05T17:05:19.842Z,1.38
2022-11-05T17:07:47.073Z,1.45
2022-11-05T17:10:14.151Z,1.30
2022-11-05T17:12:41.938Z,1.40
2022-11-05T17:15:37.856Z,1.50
2022-11-05T17:18:05.653Z,1.60
2022-11-05T17:20:42.306Z,1.60
2022-11-05T17:23:11.459Z,1.35
2022-11-05T17:25:39.981Z,1.42
2022-11-05T17:28:07.034Z,1.55
2022-11-05T17:30:33.690Z,1.33
2022-11-05T17:33:00.499Z,2.00
2022-11-05T17:35:27.415Z,1.70
2022-11-05T17:37:54.129Z,2.20
2022-11-05T17:40:22.701Z,2.00
2022-11-05T17:42:50.535Z,1.95
2022-11-05T17:45:17.870Z,2.00
2022-11-05T17:50:14.723Z,1.92
2022-11-05T17:52:41.328Z,1.90
2022-11-05T17:55:16.433Z,2.15
2022-11-05T17:57:52.311Z,1.98
2022-11-05T18:00:21.943Z,1.92
2022-11-05T18:02:49.614Z,2.42
2022-11-05T18:05:21.660Z,1.90
2022-11-05T18:07:48.990Z,2.20
2022-11-05T18:10:16.132Z,1.83
2022-11-05T18:12:43.501Z,1.90
2022-11-05T18:17:36.827Z,2.25
2022-11-05T18:20:04.799Z,2.03
2022-11-05T18:22:31.305Z,1.95
2022-11-05T18:24:57.742Z,2.03
2022-11-05T18:27:27.497Z,2.05
2022-11-05T18:29:56.816Z,1.85
2022-11-05T18:32:23.726Z,2.03
2022-11-05T18:34:50.386Z,2.10
2022-11-05T18:37:16.898Z,1.80
2022-11-05T18:39:43.961Z,1.80
2022-11-05T18:42:10.788Z,2.47
2022-11-05T18:44:39.436Z,2.40
2022-11-05T18:47:06.883Z,2.42
2022-11-05T18:49:33.857Z,2.22
2022-11-05T18:52:00.577Z,1.98
2022-11-05T18:54:27.164Z,2.20
2022-11-05T18:56:53.674Z,1.90
2022-11-05T18:59:38.767Z,2.30
2022-11-05T19:02:07.326Z,2.10
2022-11-05T19:04:36.313Z,1.70
2022-11-05T19:07:05.348Z,2.15
2022-11-05T19:09:34.246Z,2.33
2022-11-05T19:12:01.494Z,2.15
2022-11-05T19:14:29.982Z,2.20
2022-11-05T19:16:57.402Z,2.03
2022-11-05T19:21:50.898Z,1.88
2022-11-05T19:24:17.543Z,1.73
2022-11-05T19:26:44.344Z,2.28
2022-11-05T19:29:10.818Z,2.05
2022-11-05T19:31:37.406Z,2.08
2022-11-05T19:34:05.485Z,2.08
2022-11-05T19:36:33.269Z,1.90
2022-11-05T19:39:12.706Z,1.90
2022-11-05T19:41:39.183Z,1.70
2022-11-05T19:44:06.058Z,1.80
2022-11-05T19:46:33.292Z,1.98
2022-11-05T19:49:01.108Z,2.05
2022-11-05T19:51:30.015Z,2.00
2022-11-05T19:53:56.976Z,2.53
2022-11-05T19:56:31.729Z,2.42
2022-11-05T19:58:59.410Z,2.10
2022-11-05T20:01:28.253Z,1.80
2022-11-05T20:03:56.997Z,1.70
2022-11-05T20:06:30.747Z,1.77
2022-11-05T20:09:20.611Z,1.90
2022-11-05T20:11:45.365Z,2.08
2022-11-05T20:14:11.915Z,1.70
2022-11-05T20:16:39.144Z,1.95
2022-11-05T20:19:08.079Z,1.80
2022-11-05T20:21:35.003Z,1.90
2022-11-05T20:24:02.509Z,1.80
2022-11-05T20:26:29.499Z,1.50
2022-11-05T20:28:56.037Z,2.05
2022-11-05T20:31:23.121Z,1.60
2022-11-05T20:33:50.006Z,1.65
2022-11-05T20:36:18.455Z,2.03
2022-11-05T20:38:52.890Z,2.00
2022-11-05T20:41:19.861Z,2.20
2022-11-05T20:43:47.991Z,1.80
2022-11-05T20:46:16.811Z,1.90
2022-11-05T20:48:44.190Z,1.88
2022-11-05T20:53:39.719Z,1.90
2022-11-05T20:56:10.463Z,1.65
2022-11-05T20:58:37.964Z,1.90
2022-11-05T21:01:05.699Z,1.63
2022-11-05T21:03:32.697Z,1.70
2022-11-05T21:06:04.155Z,2.00
2022-11-05T21:08:30.705Z,1.77
2022-11-05T21:10:57.275Z,1.67
2022-11-05T21:13:24.102Z,1.83
2022-11-05T21:15:53.683Z,1.88
2022-11-05T21:18:22.201Z,2.05
2022-11-05T21:20:49.036Z,1.92
2022-11-05T21:23:16.693Z,1.55
2022-11-05T21:25:44.099Z,2.10
2022-11-05T21:30:41.650Z,1.70
2022-11-05T21:33:09.193Z,1.75
2022-11-05T21:35:40.594Z,2.55
2022-11-05T21:38:07.324Z,2.03
2022-11-05T21:40:33.923Z,1.77
2022-11-05T21:43:00.359Z,1.60
2022-11-05T21:45:27.149Z,1.60
2022-11-05T21:47:53.659Z,1.50
2022-11-05T21:50:22.073Z,1.95
2022-11-05T21:53:07.247Z,1.63
2022-11-05T21:55:52.067Z,1.50
2022-11-05T21:58:38.030Z,1.63
2022-11-05T22:01:04.611Z,1.92
2022-11-05T22:03:31.063Z,1.58
2022-11-05T22:05:57.508Z,1.73
2022-11-05T22:08:23.951Z,1.73
2022-11-05T22:10:50.401Z,1.75
2022-11-05T22:13:16.845Z,1.70
2022-11-05T22:15:43.309Z,1.88
2022-11-05T22:18:09.981Z,2.15
2022-11-05T22:20:39.042Z,2.22
2022-11-05T22:23:10.868Z,1.63
2022-11-05T22:25:37.630Z,1.80
2022-11-05T22:28:04.296Z,1.80
2022-11-05T22:30:34.613Z,2.00
2022-11-05T22:33:01.209Z,1.95
2022-11-05T22:35:27.684Z,1.80
2022-11-05T22:37:54.331Z,2.10
2022-11-05T22:40:23.815Z,1.45
2022-11-05T22:42:50.687Z,1.80
2022-11-05T22:45:17.270Z,1.50
2022-11-05T22:47:43.726Z,1.75
2022-11-05T22:50:10.284Z,1.70
2022-11-05T22:52:36.751Z,1.58
2022-11-05T22:55:06.100Z,1.50
2022-11-05T22:57:32.770Z,1.50
2022-11-05T22:59:59.321Z,1.70
2022-11-05T23:02:25.833Z,1.40
2022-11-05T23:04:52.480Z,1.58
2022-11-05T23:07:37.687Z,1.40
2022-11-05T23:10:23.021Z,1.50
2022-11-05T23:12:49.598Z,1.60
2022-11-05T23:15:34.702Z,1.73
2022-11-05T23:18:19.535Z,1.40
2022-11-05T23:21:04.304Z,1.67
2022-11-05T23:23:49.066Z,1.65
2022-11-05T23:26:33.769Z,1.33
2022-11-05T23:29:00.255Z,1.50
2022-11-05T23:31:45.283Z,1.30
2022-11-05T23:34:11.743Z,1.40
2022-11-05T23:36:56.557Z,1.60
2022-11-05T23:39:23.003Z,1.50
2022-11-05T23:42:07.995Z,1.40
2022-11-05T23:44:52.663Z,1.80
2022-11-05T23:47:37.413Z,1.50
2022-11-05T23:50:04.018Z,1.42
2022-11-05T23:52:30.439Z,1.40
2022-11-05T23:54:56.888Z,1.30
2022-11-05T23:57:23.344Z,1.20
2022-11-05T23:59:49.833Z,1.45
